createdAt,value
2018-07-23T00:04:34.337Z,9.20
2018-07-23T00:07:21.051Z,10.70
2018-07-23T00:10:06.278Z,9.50
2018-07-23T00:13:14.401Z,9.50
2018-07-23T00:16:02.755Z,8.93
2018-07-23T00:19:00.621Z,7.93
2018-07-23T00:21:46.052Z,12.93
2018-07-23T00:27:36.081Z,11.57
2018-07-23T00:33:51.931Z,10.03
2018-07-23T00:43:13.315Z,10.80
2018-07-23T00:46:14.474Z,13.60
2018-07-23T00:58:52.494Z,14.33
2018-07-23T01:04:51.651Z,10.87
2018-07-23T01:07:56.647Z,11.63
2018-07-23T01:16:58.292Z,13.90
2018-07-23T01:19:54.079Z,10.30
2018-07-23T01:22:59.765Z,10.80
2018-07-23T01:32:30.551Z,15.57
2018-07-23T01:35:30.335Z,14.93
2018-07-23T01:38:27.980Z,15.00
2018-07-23T01:41:47.426Z,15.60
2018-07-23T01:44:42.306Z,14.10
2018-07-23T01:47:43.153Z,14.07
2018-07-23T01:50:46.250Z,17.60
2018-07-23T01:53:47.252Z,15.53
2018-07-23T01:56:49.149Z,17.53
2018-07-23T01:59:58.780Z,17.83
2018-07-23T02:06:26.226Z,17.63
2018-07-23T02:09:31.407Z,16.20
2018-07-23T02:12:41.988Z,17.57
2018-07-23T02:15:46.919Z,14.17
2018-07-23T02:18:34.271Z,13.63
2018-07-23T02:21:18.014Z,12.97
2018-07-23T02:28:00.775Z,17.07
2018-07-23T02:31:02.880Z,13.73
2018-07-23T02:34:11.014Z,13.50
2018-07-23T02:40:16.093Z,15.50
2018-07-23T02:43:07.396Z,15.53
2018-07-23T02:46:04.104Z,14.67
2018-07-23T02:49:16.645Z,13.33
2018-07-23T02:52:55.464Z,13.60
2018-07-23T02:55:55.010Z,16.47
2018-07-23T02:58:51.383Z,13.33
2018-07-23T03:01:46.525Z,12.10
2018-07-23T03:12:04.882Z,14.23
2018-07-23T05:30:53.079Z,13.93
2018-07-23T07:13:17.106Z,16.40
2018-07-23T07:19:38.409Z,18.03
2018-07-23T17:20:55.950Z,34.80
2018-07-23T17:23:32.838Z,27.10
2018-07-23T17:26:09.321Z,24.47
2018-07-23T17:28:45.876Z,29.83
2018-07-23T17:31:23.756Z,25.27
2018-07-23T17:34:03.749Z,28.63
2018-07-23T17:36:46.740Z,27.00
2018-07-23T17:39:23.819Z,24.97
2018-07-23T17:42:06.405Z,28.23
2018-07-23T17:44:43.837Z,26.70
2018-07-23T17:47:22.241Z,21.63
2018-07-23T17:50:01.991Z,27.00
2018-07-23T17:52:40.362Z,27.77
2018-07-23T17:55:23.389Z,29.87
2018-07-23T17:58:01.796Z,28.67
2018-07-23T18:00:39.360Z,28.50
2018-07-23T18:03:25.562Z,24.20
2018-07-23T18:06:06.957Z,28.23
2018-07-23T18:08:45.162Z,24.17
2018-07-23T18:11:23.009Z,29.77
2018-07-23T18:14:00.274Z,28.10
2018-07-23T18:16:38.439Z,26.57
2018-07-23T18:19:19.285Z,29.50
2018-07-23T18:21:56.404Z,19.07
2018-07-23T18:24:33.834Z,28.67
2018-07-23T18:27:12.890Z,30.40
2018-07-23T18:29:51.361Z,27.90
2018-07-23T18:32:30.198Z,23.87
2018-07-23T18:35:09.759Z,28.37
2018-07-23T18:37:47.594Z,24.20
2018-07-23T18:40:25.528Z,24.37
2018-07-23T18:43:03.391Z,21.53
2018-07-23T18:45:45.041Z,21.53
2018-07-23T18:50:39.562Z,24.70
2018-07-23T18:53:19.989Z,26.87
2018-07-23T18:55:56.038Z,25.47
2018-07-23T18:58:33.434Z,21.87
2018-07-23T19:01:10.091Z,28.80
2018-07-23T19:03:47.479Z,27.10
2018-07-23T19:06:25.576Z,28.53
2018-07-23T19:09:03.084Z,27.20
2018-07-23T19:11:41.065Z,23.20
2018-07-23T19:14:19.152Z,28.37
2018-07-23T19:16:57.553Z,29.83
2018-07-23T19:19:35.153Z,24.07
2018-07-23T19:22:11.955Z,31.60
2018-07-23T19:24:50.286Z,31.60
2018-07-23T19:27:27.606Z,27.80
2018-07-23T19:30:05.697Z,25.70
2018-07-23T19:32:43.112Z,24.70
2018-07-23T19:35:21.771Z,28.27
2018-07-23T19:37:59.544Z,27.13
2018-07-23T19:40:39.965Z,26.73
2018-07-23T19:43:17.906Z,29.27
2018-07-23T19:45:54.557Z,28.33
2018-07-23T19:48:41.812Z,26.33
2018-07-23T19:51:20.477Z,27.87
2018-07-23T19:53:57.602Z,28.67
2018-07-23T19:56:34.483Z,29.97
2018-07-23T19:59:24.957Z,27.83
2018-07-23T20:02:01.996Z,26.73
2018-07-23T20:04:44.513Z,26.63
2018-07-23T20:07:22.654Z,29.00
2018-07-23T20:09:59.302Z,29.30
2018-07-23T20:12:36.840Z,29.73
2018-07-23T20:15:15.085Z,24.57
2018-07-23T20:17:52.856Z,26.93
2018-07-23T20:20:30.489Z,24.33
2018-07-23T20:23:07.530Z,29.93
2018-07-23T20:25:44.614Z,25.83
2018-07-23T20:28:23.312Z,30.43
2018-07-23T20:31:01.379Z,29.33
2018-07-23T20:33:39.145Z,25.10
2018-07-23T20:36:20.056Z,24.07
2018-07-23T20:38:57.216Z,24.43
2018-07-23T20:41:34.303Z,29.87
2018-07-23T20:44:11.826Z,28.17
2018-07-23T20:46:49.784Z,23.40
2018-07-23T20:49:27.904Z,23.43
2018-07-23T20:52:05.172Z,27.83
2018-07-23T20:54:43.195Z,22.37
2018-07-23T20:57:20.738Z,26.07
2018-07-23T20:59:57.862Z,25.37
2018-07-23T21:02:35.705Z,22.50
2018-07-23T21:05:13.188Z,30.37
2018-07-23T21:07:49.948Z,24.37
2018-07-23T21:10:28.362Z,26.10
2018-07-23T21:13:05.707Z,28.17
2018-07-23T21:15:43.537Z,23.47
2018-07-23T21:18:21.671Z,26.27
2018-07-23T21:21:03.479Z,28.77
2018-07-23T21:23:41.365Z,26.47
2018-07-23T21:26:18.593Z,23.87
2018-07-23T21:28:56.733Z,28.60
2018-07-23T21:31:34.546Z,26.50
2018-07-23T21:34:12.672Z,29.27
2018-07-23T21:36:52.479Z,25.07
2018-07-23T21:39:30.646Z,26.03
2018-07-23T21:42:10.753Z,26.87
2018-07-23T21:44:49.177Z,26.93
2018-07-23T21:47:26.516Z,22.37
2018-07-23T21:50:04.511Z,18.37
2018-07-23T21:52:41.687Z,15.87
2018-07-23T21:55:19.832Z,8.37
2018-07-23T21:57:57.682Z,8.80
2018-07-23T22:00:36.644Z,8.43
2018-07-23T22:03:15.801Z,7.37
2018-07-23T22:05:54.032Z,7.63
2018-07-23T22:08:31.419Z,9.00
2018-07-23T22:11:08.384Z,8.77
2018-07-23T22:13:46.064Z,8.40
2018-07-23T22:16:24.406Z,8.20
2018-07-23T22:19:01.612Z,10.10
2018-07-23T22:21:39.489Z,8.90
2018-07-23T22:24:17.845Z,10.00
2018-07-23T22:26:55.820Z,6.93
2018-07-23T22:29:32.883Z,7.20
2018-07-23T22:32:10.131Z,6.07
2018-07-23T22:34:48.383Z,5.33
2018-07-23T22:37:26.895Z,4.63
2018-07-23T22:40:05.296Z,5.57
2018-07-23T22:42:44.329Z,5.50
2018-07-23T22:45:21.826Z,4.80
2018-07-23T22:47:59.563Z,5.83
2018-07-23T22:50:37.849Z,5.03
2018-07-23T22:53:15.685Z,6.23
2018-07-23T22:55:54.153Z,6.17
2018-07-23T22:58:31.857Z,4.90
2018-07-23T23:01:09.611Z,5.83
2018-07-23T23:03:47.705Z,5.70
2018-07-23T23:06:26.090Z,4.40
2018-07-23T23:09:04.820Z,5.83
2018-07-23T23:11:43.355Z,3.80
2018-07-23T23:14:22.489Z,4.17
2018-07-23T23:17:00.905Z,4.03
2018-07-23T23:19:39.920Z,5.00
2018-07-23T23:22:17.912Z,3.93
2018-07-23T23:24:55.641Z,4.63
2018-07-23T23:27:32.878Z,3.63
2018-07-23T23:30:11.845Z,4.80
2018-07-23T23:32:50.564Z,4.83
2018-07-23T23:35:28.968Z,4.67
2018-07-23T23:38:07.360Z,5.67
2018-07-23T23:40:45.844Z,4.30
2018-07-23T23:43:24.572Z,4.83
2018-07-23T23:46:01.929Z,4.20
2018-07-23T23:48:40.164Z,4.33
2018-07-23T23:51:18.888Z,3.73
2018-07-23T23:53:57.685Z,3.83
2018-07-23T23:56:35.926Z,4.00
2018-07-23T23:59:14.598Z,4.97
